createdAt,value
2017-12-31T00:02:10.944Z,1.30
2017-12-31T00:04:38.126Z,1.67
2017-12-31T00:07:04.553Z,1.60
2017-12-31T00:09:30.953Z,1.60
2017-12-31T00:11:57.348Z,1.60
2017-12-31T00:14:23.799Z,2.55
2017-12-31T00:16:50.993Z,1.60
2017-12-31T00:19:18.176Z,1.80
2017-12-31T00:21:44.617Z,1.37
2017-12-31T00:24:11.039Z,1.62
2017-12-31T00:26:37.447Z,1.23
2017-12-31T00:29:04.577Z,1.10
2017-12-31T00:31:30.978Z,1.60
2017-12-31T00:33:57.414Z,1.52
2017-12-31T00:36:23.847Z,1.60
2017-12-31T00:38:51.032Z,1.50
2017-12-31T00:41:17.468Z,1.80
2017-12-31T00:43:44.638Z,1.52
2017-12-31T00:46:11.048Z,1.77
2017-12-31T00:48:38.203Z,1.65
2017-12-31T00:51:04.628Z,1.70
2017-12-31T00:53:31.776Z,1.60
2017-12-31T00:55:58.934Z,1.35
2017-12-31T00:58:25.360Z,1.62
2017-12-31T01:00:51.852Z,1.35
2017-12-31T01:03:18.322Z,1.90
2017-12-31T01:05:44.692Z,1.65
2017-12-31T01:08:11.094Z,1.20
2017-12-31T01:10:37.653Z,2.20
2017-12-31T01:13:04.076Z,1.87
2017-12-31T01:15:31.226Z,1.75
2017-12-31T01:17:58.388Z,2.10
2017-12-31T01:20:24.828Z,1.85
2017-12-31T01:22:51.240Z,2.17
2017-12-31T01:25:18.382Z,2.15
2017-12-31T01:27:45.561Z,1.40
2017-12-31T01:30:11.984Z,1.80
2017-12-31T01:32:38.400Z,1.60
2017-12-31T01:35:05.528Z,1.77
2017-12-31T01:37:32.728Z,1.52
2017-12-31T01:39:59.120Z,2.05
2017-12-31T01:42:25.556Z,2.05
2017-12-31T01:44:51.986Z,1.60
2017-12-31T01:47:18.419Z,1.77
2017-12-31T01:49:44.836Z,1.87
2017-12-31T01:52:11.244Z,1.95
2017-12-31T01:54:37.975Z,2.50
2017-12-31T01:57:04.356Z,1.75
2017-12-31T01:59:31.485Z,1.85
2017-12-31T02:01:57.953Z,1.98
2017-12-31T02:04:25.439Z,2.00
2017-12-31T02:06:51.860Z,1.87
2017-12-31T02:09:18.266Z,2.20
2017-12-31T02:11:44.720Z,1.80
2017-12-31T02:14:11.116Z,2.17
2017-12-31T02:16:38.289Z,2.22
2017-12-31T02:19:05.433Z,1.90
2017-12-31T02:21:32.577Z,1.70
2017-12-31T02:23:58.995Z,2.00
2017-12-31T02:26:26.257Z,1.73
2017-12-31T02:28:52.670Z,1.90
2017-12-31T02:31:19.592Z,1.92
2017-12-31T02:33:45.981Z,2.15
2017-12-31T02:36:13.133Z,1.70
2017-12-31T02:38:40.508Z,1.83
2017-12-31T02:41:06.982Z,1.55
2017-12-31T02:43:33.400Z,1.58
2017-12-31T02:45:59.828Z,1.70
2017-12-31T02:48:26.245Z,1.30
2017-12-31T02:50:52.636Z,1.52
2017-12-31T02:53:19.048Z,1.48
2017-12-31T02:55:45.473Z,1.70
2017-12-31T02:58:11.868Z,1.85
2017-12-31T03:00:38.264Z,1.55
2017-12-31T03:03:05.464Z,1.60
2017-12-31T03:05:31.866Z,1.48
2017-12-31T03:07:59.070Z,1.52
2017-12-31T03:10:25.481Z,1.85
2017-12-31T03:12:51.907Z,2.15
2017-12-31T03:15:18.364Z,1.70
2017-12-31T03:17:44.784Z,1.65
2017-12-31T03:20:11.248Z,1.90
2017-12-31T03:22:37.676Z,1.83
2017-12-31T03:25:04.080Z,1.50
2017-12-31T03:27:30.586Z,1.27
2017-12-31T03:29:57.018Z,1.50
2017-12-31T03:32:23.412Z,1.73
2017-12-31T03:34:49.864Z,1.23
2017-12-31T03:37:16.276Z,1.20
2017-12-31T03:39:42.701Z,1.65
2017-12-31T03:42:09.115Z,1.20
2017-12-31T03:44:35.565Z,1.45
2017-12-31T03:47:01.969Z,1.40
2017-12-31T03:49:28.396Z,1.23
2017-12-31T03:51:54.844Z,1.50
2017-12-31T03:54:21.293Z,1.80
2017-12-31T03:56:47.692Z,1.50
2017-12-31T03:59:14.088Z,1.20
2017-12-31T04:01:41.256Z,1.52
2017-12-31T04:04:07.656Z,1.30
2017-12-31T04:06:34.149Z,1.20
2017-12-31T04:09:00.557Z,1.20
2017-12-31T04:11:26.941Z,1.45
2017-12-31T04:13:53.397Z,1.52
2017-12-31T04:16:20.553Z,1.00
2017-12-31T04:18:47.705Z,1.58
2017-12-31T04:21:14.837Z,1.10
2017-12-31T04:23:41.228Z,1.23
2017-12-31T04:26:07.631Z,1.33
2017-12-31T04:28:35.005Z,1.10
2017-12-31T04:31:01.417Z,1.60
2017-12-31T04:33:27.820Z,1.52
2017-12-31T04:35:54.220Z,1.40
2017-12-31T04:38:20.608Z,1.45
2017-12-31T04:40:47.752Z,1.25
2017-12-31T04:43:15.457Z,1.02
2017-12-31T04:45:41.860Z,1.60
2017-12-31T04:48:09.000Z,1.37
2017-12-31T04:50:35.455Z,1.50
2017-12-31T04:53:01.868Z,1.83
2017-12-31T04:55:29.024Z,1.75
2017-12-31T04:57:56.181Z,1.20
2017-12-31T05:00:22.597Z,1.52
2017-12-31T05:02:49.019Z,1.60
2017-12-31T05:05:15.441Z,1.58
2017-12-31T05:07:41.831Z,1.60
2017-12-31T05:10:08.264Z,1.10
2017-12-31T05:12:34.648Z,2.15
2017-12-31T05:15:01.079Z,1.25
2017-12-31T05:17:27.487Z,1.35
2017-12-31T05:19:53.905Z,1.62
2017-12-31T05:22:20.306Z,1.73
2017-12-31T05:24:47.567Z,1.40
2017-12-31T05:27:14.039Z,2.33
2017-12-31T05:29:40.421Z,1.15
2017-12-31T05:32:06.829Z,1.60
2017-12-31T05:34:33.987Z,1.35
2017-12-31T05:37:01.131Z,1.20
2017-12-31T05:39:27.504Z,0.98
2017-12-31T05:41:53.932Z,1.25
2017-12-31T05:44:20.316Z,1.25
2017-12-31T05:46:46.779Z,1.20
2017-12-31T05:49:13.202Z,0.95
2017-12-31T05:51:39.617Z,0.80
2017-12-31T05:54:06.082Z,1.67
2017-12-31T05:56:32.476Z,1.17
2017-12-31T05:58:58.869Z,1.98
2017-12-31T06:01:25.265Z,1.55
2017-12-31T06:03:51.667Z,1.55
2017-12-31T06:06:18.836Z,1.25
2017-12-31T06:08:45.991Z,1.10
2017-12-31T06:11:13.144Z,1.80
2017-12-31T06:13:39.561Z,1.30
2017-12-31T06:16:05.980Z,1.20
2017-12-31T06:18:32.389Z,1.08
2017-12-31T06:20:59.570Z,1.30
2017-12-31T06:23:25.973Z,1.37
2017-12-31T06:25:52.408Z,1.20
2017-12-31T06:28:18.816Z,1.30
2017-12-31T06:30:45.272Z,1.30
2017-12-31T06:33:11.684Z,1.20
2017-12-31T06:35:38.073Z,1.40
2017-12-31T06:38:05.252Z,1.10
2017-12-31T06:40:31.679Z,1.70
2017-12-31T06:42:58.796Z,1.33
2017-12-31T06:45:25.992Z,1.40
2017-12-31T06:47:52.384Z,1.25
2017-12-31T06:50:18.816Z,1.25
2017-12-31T06:52:45.335Z,1.05
2017-12-31T06:55:12.513Z,1.52
2017-12-31T06:57:39.633Z,1.60
2017-12-31T07:00:06.068Z,1.50
2017-12-31T07:02:32.484Z,1.30
2017-12-31T07:04:58.889Z,1.20
2017-12-31T07:07:25.297Z,1.37
2017-12-31T07:09:51.729Z,1.48
2017-12-31T07:12:18.903Z,1.45
2017-12-31T07:14:45.341Z,1.60
2017-12-31T07:17:11.793Z,1.42
2017-12-31T07:19:38.220Z,1.40
2017-12-31T07:22:04.611Z,1.45
2017-12-31T07:24:31.031Z,1.30
2017-12-31T07:26:58.208Z,1.17
2017-12-31T07:29:24.612Z,1.10
2017-12-31T07:31:51.020Z,1.25
2017-12-31T07:34:18.187Z,1.42
2017-12-31T07:36:44.604Z,1.40
2017-12-31T07:39:11.316Z,1.42
2017-12-31T07:41:37.712Z,1.50
2017-12-31T07:44:04.833Z,1.65
2017-12-31T07:46:31.232Z,1.37
2017-12-31T07:48:57.641Z,2.03
2017-12-31T07:51:24.057Z,1.70
2017-12-31T07:53:51.184Z,1.40
2017-12-31T07:56:17.598Z,1.08
2017-12-31T07:58:43.981Z,1.10
2017-12-31T08:01:10.493Z,1.50
2017-12-31T08:03:37.629Z,1.42
2017-12-31T08:06:04.027Z,1.10
2017-12-31T08:08:30.450Z,1.10
2017-12-31T08:10:57.072Z,1.27
2017-12-31T08:13:23.505Z,1.52
2017-12-31T08:15:49.897Z,1.10
2017-12-31T08:18:16.313Z,1.10
2017-12-31T08:20:42.756Z,1.23
2017-12-31T08:23:09.156Z,1.23
2017-12-31T08:25:35.606Z,1.00
2017-12-31T08:28:02.045Z,1.10
2017-12-31T08:30:28.452Z,1.37
2017-12-31T08:32:54.884Z,1.30
2017-12-31T08:35:21.304Z,1.40
2017-12-31T08:37:47.728Z,2.10
2017-12-31T08:40:14.151Z,1.00
2017-12-31T08:42:41.352Z,1.05
2017-12-31T08:45:07.791Z,1.23
2017-12-31T08:47:34.234Z,1.00
2017-12-31T08:50:00.641Z,1.10
2017-12-31T08:52:27.080Z,1.50
2017-12-31T08:54:53.505Z,1.40
2017-12-31T08:57:19.921Z,1.10
2017-12-31T08:59:46.364Z,1.60
2017-12-31T09:02:12.796Z,1.35
2017-12-31T09:04:39.256Z,1.35
2017-12-31T09:07:05.696Z,1.65
2017-12-31T09:09:32.904Z,1.48
2017-12-31T09:11:59.337Z,1.10
2017-12-31T09:14:25.778Z,1.50
2017-12-31T09:16:52.188Z,3.97
2017-12-31T09:19:19.468Z,1.95
2017-12-31T09:21:45.871Z,1.75
2017-12-31T09:24:12.288Z,1.35
2017-12-31T09:26:39.812Z,1.12
2017-12-31T09:29:06.980Z,1.80
2017-12-31T09:31:34.128Z,1.30
2017-12-31T09:34:00.562Z,2.00
2017-12-31T09:36:27.005Z,1.40
2017-12-31T09:38:54.306Z,1.87
2017-12-31T09:41:20.817Z,1.50
2017-12-31T09:43:47.265Z,1.23
2017-12-31T09:46:13.672Z,1.05
2017-12-31T09:48:40.864Z,1.10
2017-12-31T09:51:07.307Z,1.42
2017-12-31T09:53:33.709Z,1.40
2017-12-31T09:56:00.468Z,1.60
2017-12-31T09:58:26.927Z,2.95
2017-12-31T10:00:53.507Z,1.90
2017-12-31T10:03:19.946Z,1.80
2017-12-31T10:05:46.363Z,1.90
2017-12-31T10:08:12.970Z,1.45
2017-12-31T10:10:39.437Z,2.00
2017-12-31T10:13:05.868Z,1.12
2017-12-31T10:15:33.028Z,1.42
2017-12-31T10:17:59.441Z,1.40
2017-12-31T10:20:26.656Z,1.30
2017-12-31T10:22:53.076Z,1.40
2017-12-31T10:25:19.532Z,1.23
2017-12-31T10:27:46.239Z,1.20
2017-12-31T10:30:12.665Z,1.40
2017-12-31T10:32:39.081Z,0.95
2017-12-31T10:35:05.537Z,1.30
2017-12-31T10:37:32.048Z,1.45
2017-12-31T10:39:58.469Z,1.48
2017-12-31T10:42:24.893Z,1.40
2017-12-31T10:44:51.364Z,1.60
2017-12-31T10:47:17.824Z,1.75
2017-12-31T10:49:44.261Z,2.50
2017-12-31T10:52:11.505Z,1.70
2017-12-31T10:54:37.964Z,1.70
2017-12-31T10:57:05.116Z,1.52
2017-12-31T10:59:31.556Z,3.22
2017-12-31T11:01:58.762Z,2.10
2017-12-31T11:04:25.181Z,2.50
2017-12-31T11:06:52.523Z,2.80
2017-12-31T11:09:18.974Z,1.65
2017-12-31T11:11:45.400Z,1.80
2017-12-31T11:14:11.852Z,2.15
2017-12-31T11:16:38.248Z,1.30
2017-12-31T11:19:05.442Z,1.40
2017-12-31T11:21:31.830Z,1.50
2017-12-31T11:23:58.288Z,1.60
2017-12-31T11:26:24.709Z,1.25
2017-12-31T11:28:51.126Z,1.40
2017-12-31T11:31:17.549Z,1.20
2017-12-31T11:33:44.788Z,1.05
2017-12-31T11:36:11.237Z,1.25
2017-12-31T11:38:38.418Z,1.15
2017-12-31T11:41:04.833Z,1.20
2017-12-31T11:43:31.252Z,1.05
2017-12-31T11:45:57.681Z,1.48
2017-12-31T11:48:24.829Z,1.30
2017-12-31T11:50:51.244Z,3.12
2017-12-31T11:53:17.649Z,1.70
2017-12-31T11:55:44.133Z,1.90
2017-12-31T11:58:11.340Z,1.60
2017-12-31T12:00:38.082Z,1.92
2017-12-31T12:03:05.298Z,1.67
2017-12-31T12:05:31.727Z,3.00
2017-12-31T12:07:58.111Z,1.60
2017-12-31T12:10:24.570Z,2.10
2017-12-31T12:12:51.009Z,1.90
2017-12-31T12:15:17.545Z,1.30
2017-12-31T12:17:44.012Z,1.40
2017-12-31T12:20:10.402Z,1.62
2017-12-31T12:22:37.046Z,1.77
2017-12-31T12:25:03.462Z,2.08
2017-12-31T12:27:30.621Z,2.03
2017-12-31T12:29:57.825Z,4.28
2017-12-31T12:32:24.276Z,3.03
2017-12-31T12:34:50.714Z,1.95
2017-12-31T12:37:17.135Z,2.15
2017-12-31T12:39:43.937Z,1.60
2017-12-31T12:42:10.348Z,1.77
2017-12-31T12:44:36.809Z,1.70
2017-12-31T12:47:03.296Z,2.00
2017-12-31T12:49:30.440Z,1.95
2017-12-31T12:51:56.864Z,2.65
2017-12-31T12:54:23.282Z,2.08
2017-12-31T12:56:49.738Z,2.17
2017-12-31T12:59:16.137Z,2.20
2017-12-31T13:01:43.338Z,2.15
2017-12-31T13:04:10.518Z,2.33
2017-12-31T13:06:37.000Z,3.53
2017-12-31T13:09:03.465Z,2.60
2017-12-31T13:11:30.697Z,3.55
2017-12-31T13:13:57.861Z,3.40
2017-12-31T13:16:24.323Z,4.50
2017-12-31T13:18:50.735Z,7.40
2017-12-31T13:21:17.197Z,7.82
2017-12-31T13:23:43.636Z,16.08
2017-12-31T13:26:10.051Z,17.12
2017-12-31T13:28:36.654Z,31.87
2017-12-31T13:31:04.474Z,14.20
2017-12-31T13:33:30.944Z,15.60
2017-12-31T13:35:58.290Z,24.65
2017-12-31T13:38:24.719Z,6.85
2017-12-31T13:40:51.156Z,38.97
2017-12-31T13:43:17.593Z,26.40
2017-12-31T13:45:44.063Z,7.70
2017-12-31T13:48:10.509Z,8.00
2017-12-31T13:50:36.963Z,33.47
2017-12-31T13:53:03.368Z,17.70
2017-12-31T13:55:29.856Z,35.75
2017-12-31T13:57:56.291Z,9.20
2017-12-31T14:00:22.785Z,4.68
2017-12-31T14:02:49.954Z,6.90
2017-12-31T14:05:16.456Z,9.40
2017-12-31T14:07:42.876Z,14.43
2017-12-31T14:10:09.330Z,42.70
2017-12-31T14:12:35.751Z,14.07
2017-12-31T14:15:02.193Z,4.90
2017-12-31T14:17:28.622Z,3.70
2017-12-31T14:19:55.032Z,3.05
2017-12-31T14:22:22.204Z,7.07
2017-12-31T14:24:48.657Z,5.00
2017-12-31T14:27:15.078Z,6.20
2017-12-31T14:29:41.506Z,3.92
2017-12-31T14:32:07.923Z,4.65
2017-12-31T14:34:34.348Z,3.40
2017-12-31T14:37:00.995Z,2.80
2017-12-31T14:39:27.385Z,2.53
2017-12-31T14:41:53.811Z,2.87
2017-12-31T14:44:20.237Z,3.92
2017-12-31T14:46:46.653Z,3.42
2017-12-31T14:49:13.090Z,3.80
2017-12-31T14:51:39.536Z,3.25
2017-12-31T14:54:05.962Z,2.83
2017-12-31T14:56:32.413Z,21.55
2017-12-31T14:58:58.842Z,19.33
2017-12-31T15:01:25.242Z,11.00
2017-12-31T15:03:51.678Z,2.40
2017-12-31T15:06:18.108Z,3.75
2017-12-31T15:08:44.569Z,2.87
2017-12-31T15:11:11.102Z,4.57
2017-12-31T15:13:37.509Z,4.72
2017-12-31T15:16:03.940Z,2.97
2017-12-31T15:18:30.394Z,2.47
2017-12-31T15:20:57.601Z,3.08
2017-12-31T15:23:24.069Z,2.33
2017-12-31T15:25:50.483Z,2.35
2017-12-31T15:28:16.929Z,2.30
2017-12-31T15:30:43.381Z,2.30
2017-12-31T15:33:09.842Z,3.00
2017-12-31T15:35:37.039Z,3.15
2017-12-31T15:38:03.729Z,3.10
2017-12-31T15:40:30.897Z,2.85
2017-12-31T15:42:57.515Z,3.45
2017-12-31T15:45:23.992Z,3.87
2017-12-31T15:47:50.462Z,4.07
2017-12-31T15:50:16.886Z,2.62
2017-12-31T15:52:43.311Z,2.60
2017-12-31T15:55:09.750Z,4.30
2017-12-31T15:57:36.169Z,2.90
2017-12-31T16:00:02.684Z,3.00
2017-12-31T16:02:29.128Z,3.65
2017-12-31T16:04:55.562Z,2.58
2017-12-31T16:07:22.750Z,2.53
2017-12-31T16:09:49.934Z,2.15
2017-12-31T16:12:17.156Z,2.12
2017-12-31T16:14:43.569Z,2.50
2017-12-31T16:17:10.028Z,3.10
2017-12-31T16:19:37.184Z,2.60
2017-12-31T16:22:04.372Z,1.90
2017-12-31T16:24:30.820Z,2.35
2017-12-31T16:26:57.276Z,2.53
2017-12-31T16:29:23.712Z,2.90
2017-12-31T16:31:50.172Z,2.90
2017-12-31T16:34:17.336Z,2.17
2017-12-31T16:36:43.840Z,2.15
2017-12-31T16:39:10.284Z,2.40
2017-12-31T16:41:36.722Z,2.20
2017-12-31T16:44:03.218Z,2.40
2017-12-31T16:46:30.376Z,2.85
2017-12-31T16:48:56.837Z,2.87
2017-12-31T16:51:23.274Z,2.85
2017-12-31T16:53:49.738Z,3.92
2017-12-31T16:56:16.238Z,2.85
2017-12-31T16:58:43.395Z,3.75
2017-12-31T17:01:10.584Z,5.50
2017-12-31T17:03:37.036Z,4.37
2017-12-31T17:06:03.684Z,6.60
2017-12-31T17:08:30.099Z,7.87
2017-12-31T17:10:56.507Z,11.88
2017-12-31T17:13:22.921Z,16.80
2017-12-31T17:15:49.330Z,13.90
2017-12-31T17:18:16.546Z,27.33
2017-12-31T17:20:42.946Z,22.50
2017-12-31T17:23:09.384Z,17.83
2017-12-31T17:25:35.807Z,11.52
2017-12-31T17:28:02.220Z,5.65
2017-12-31T17:30:29.373Z,5.35
2017-12-31T17:32:56.513Z,3.92
2017-12-31T17:35:23.671Z,5.65
2017-12-31T17:37:50.928Z,11.20
2017-12-31T17:40:17.345Z,12.20
2017-12-31T17:42:43.756Z,10.73
2017-12-31T17:45:10.212Z,7.45
2017-12-31T17:47:37.434Z,5.30
2017-12-31T17:50:03.841Z,5.20
2017-12-31T17:52:30.252Z,7.20
2017-12-31T17:54:56.827Z,8.02
2017-12-31T17:57:23.243Z,6.22
2017-12-31T17:59:49.697Z,5.35
2017-12-31T18:02:16.106Z,4.62
2017-12-31T18:04:42.524Z,4.80
2017-12-31T18:07:08.924Z,3.70
2017-12-31T18:09:36.092Z,5.50
2017-12-31T18:12:02.501Z,3.70
2017-12-31T18:14:28.936Z,5.20
2017-12-31T18:16:55.324Z,5.45
2017-12-31T18:19:21.763Z,5.72
2017-12-31T18:21:48.201Z,6.68
2017-12-31T18:24:14.580Z,8.38
2017-12-31T18:26:41.741Z,4.00
2017-12-31T18:29:08.163Z,6.32
2017-12-31T18:31:35.332Z,5.00
2017-12-31T18:34:01.737Z,7.32
2017-12-31T18:36:28.869Z,4.03
2017-12-31T18:38:55.333Z,3.95
2017-12-31T18:41:21.771Z,3.90
2017-12-31T18:43:48.341Z,4.03
2017-12-31T18:46:14.754Z,4.00
2017-12-31T18:48:41.160Z,3.12
2017-12-31T18:51:07.603Z,3.10
2017-12-31T18:53:34.049Z,2.70
2017-12-31T18:56:00.512Z,2.90
2017-12-31T18:58:27.042Z,2.45
2017-12-31T19:00:53.532Z,2.55
2017-12-31T19:03:19.956Z,2.08
2017-12-31T19:05:47.120Z,3.70
2017-12-31T19:08:13.524Z,3.40
2017-12-31T19:10:40.186Z,3.12
2017-12-31T19:13:06.620Z,2.62
2017-12-31T19:15:33.828Z,3.35
2017-12-31T19:18:00.262Z,2.92
2017-12-31T19:20:27.590Z,3.30
2017-12-31T19:22:54.028Z,2.75
2017-12-31T19:25:21.216Z,3.67
2017-12-31T19:27:47.636Z,3.00
2017-12-31T19:30:14.032Z,2.20
2017-12-31T19:32:40.453Z,3.15
2017-12-31T19:35:06.836Z,2.45
2017-12-31T19:37:33.299Z,3.28
2017-12-31T19:40:00.463Z,2.30
2017-12-31T19:42:26.867Z,2.97
2017-12-31T19:44:54.041Z,3.17
2017-12-31T19:47:20.497Z,2.90
2017-12-31T19:49:46.876Z,2.42
2017-12-31T19:52:14.076Z,2.50
2017-12-31T19:54:40.488Z,2.80
2017-12-31T19:57:06.905Z,3.12
2017-12-31T19:59:33.312Z,6.60
2017-12-31T20:01:59.720Z,4.07
2017-12-31T20:04:26.126Z,2.50
2017-12-31T20:06:52.540Z,2.00
2017-12-31T20:09:18.928Z,2.00
2017-12-31T20:11:45.348Z,2.12
2017-12-31T20:14:12.486Z,1.85
2017-12-31T20:16:38.880Z,1.65
2017-12-31T20:19:06.029Z,2.40
2017-12-31T20:21:33.172Z,2.42
2017-12-31T20:24:00.308Z,2.00
2017-12-31T20:26:26.721Z,1.92
2017-12-31T20:28:53.120Z,2.83
2017-12-31T20:31:19.532Z,1.87
2017-12-31T20:33:45.949Z,3.15
2017-12-31T20:36:12.361Z,2.95
2017-12-31T20:38:39.020Z,2.00
2017-12-31T20:41:06.176Z,2.10
2017-12-31T20:43:32.613Z,3.05
2017-12-31T20:45:59.145Z,6.12
2017-12-31T20:48:25.709Z,2.17
2017-12-31T20:50:52.124Z,2.60
2017-12-31T20:53:18.561Z,1.85
2017-12-31T20:55:44.965Z,2.67
2017-12-31T20:58:12.084Z,2.17
2017-12-31T21:00:38.535Z,2.22
2017-12-31T21:03:04.968Z,2.40
2017-12-31T21:05:32.365Z,2.40
2017-12-31T21:07:58.768Z,2.30
2017-12-31T21:10:25.917Z,2.12
2017-12-31T21:12:52.334Z,3.00
2017-12-31T21:15:19.500Z,2.80
2017-12-31T21:17:46.021Z,2.62
2017-12-31T21:20:12.449Z,2.55
2017-12-31T21:22:38.981Z,2.10
2017-12-31T21:25:05.397Z,2.60
2017-12-31T21:27:31.822Z,2.50
2017-12-31T21:29:58.245Z,2.37
2017-12-31T21:32:24.660Z,2.65
2017-12-31T21:34:51.058Z,2.45
2017-12-31T21:37:17.493Z,2.45
2017-12-31T21:39:43.917Z,2.65
2017-12-31T21:42:10.352Z,2.83
2017-12-31T21:44:36.784Z,3.55
2017-12-31T21:47:03.166Z,5.03
2017-12-31T21:49:29.576Z,9.32
2017-12-31T21:51:56.164Z,5.65
2017-12-31T21:54:22.568Z,2.70
2017-12-31T21:56:48.960Z,2.58
2017-12-31T21:59:16.104Z,2.55
2017-12-31T22:01:42.548Z,2.30
2017-12-31T22:04:09.681Z,2.50
2017-12-31T22:06:36.080Z,2.78
2017-12-31T22:09:02.577Z,2.33
2017-12-31T22:11:28.987Z,2.60
2017-12-31T22:13:55.402Z,2.60
2017-12-31T22:16:21.813Z,2.40
2017-12-31T22:18:48.990Z,2.37
2017-12-31T22:21:16.420Z,2.22
2017-12-31T22:23:42.833Z,2.70
2017-12-31T22:26:09.228Z,2.35
2017-12-31T22:28:36.388Z,2.30
2017-12-31T22:31:02.793Z,2.50
2017-12-31T22:33:29.214Z,2.62
2017-12-31T22:35:55.650Z,2.45
2017-12-31T22:38:22.082Z,2.35
2017-12-31T22:40:48.512Z,2.53
2017-12-31T22:43:14.945Z,2.30
2017-12-31T22:45:41.386Z,2.60
2017-12-31T22:48:08.560Z,2.45
2017-12-31T22:50:34.952Z,2.50
2017-12-31T22:53:02.193Z,2.40
2017-12-31T22:55:29.370Z,3.12
2017-12-31T22:57:55.873Z,2.80
2017-12-31T23:00:22.346Z,2.50
2017-12-31T23:02:49.860Z,11.20
2017-12-31T23:05:16.280Z,12.50
2017-12-31T23:07:42.740Z,8.90
2017-12-31T23:10:09.169Z,9.68
2017-12-31T23:12:35.580Z,9.35
2017-12-31T23:15:01.988Z,11.75
2017-12-31T23:17:28.404Z,9.90
2017-12-31T23:19:54.821Z,11.18
2017-12-31T23:22:21.212Z,10.80
2017-12-31T23:24:47.849Z,12.32
2017-12-31T23:27:14.273Z,11.00
2017-12-31T23:29:40.652Z,12.65
2017-12-31T23:32:07.065Z,10.63
2017-12-31T23:34:33.516Z,10.90
2017-12-31T23:36:59.969Z,10.00
2017-12-31T23:39:27.138Z,10.45
2017-12-31T23:41:53.556Z,11.98
2017-12-31T23:44:19.953Z,12.80
2017-12-31T23:46:46.360Z,14.52
2017-12-31T23:49:12.786Z,16.10
2017-12-31T23:51:39.200Z,17.17
2017-12-31T23:54:06.069Z,18.33
2017-12-31T23:56:33.239Z,18.30
2017-12-31T23:58:59.669Z,17.12
